Pinnacle — WCY8978 — position and weather

sailwx.info

Track history (hours):
 
Tides and Currents Weather Stations Pressure Air Temp Water Temp Dewpoint Dewpoint Depression Visibility Wind Speed Wind Dir Waves Ship Positions

Pinnacle

Owner: FV PINNACLE INC, SNOHOMISH, WA. More information available from US FCC via Universal Licensing System and Coast Guard Vessel Documentation Center.

Last reported at 2018-Jun-24 23:18 UTC. Time now 2018-Jul-21 15:35 UTC.
Position N 49°18' W 127°13'.
Warning: this ship's position is 26 days out of date.

Length 47 m; draft 16 m.

MMSI: 303072000.

Date/timePositionNaut miles runAvg speedWind from/ knotsBaromVisibWave heightAir tempDewpointWater temp
2018-Jun-24 23:18N 49°18' W 127°13'4 9.7
2018-Jun-24 22:52N 49°16' W 127°07'4 9.7
2018-Jun-24 22:30N 49°14' W 127°03'5 9.6
2018-Jun-24 22:00N 49°12' W 126°57'5 9.5
2018-Jun-24 21:30N 49°09' W 126°51'5 9.4
2018-Jun-24 21:00N 49°06' W 126°45'5 9.5
2018-Jun-24 20:30N 49°04' W 126°39'5 9.5
2018-Jun-24 20:00N 49°01' W 126°32'5 9.4
2018-Jun-24 19:30N 48°59' W 126°26'5 9.6
2018-Jun-24 19:00N 48°56' W 126°20'5 9.6
2018-Jun-24 18:30N 48°55' W 126°13'5 9.8
2018-Jun-24 18:00N 48°53' W 126°06'510.0
2018-Jun-24 17:30N 48°51' W 125°59'5 9.9
2018-Jun-24 17:00N 48°49' W 125°52'5 9.8
2018-Jun-24 16:30N 48°48' W 125°45'5 9.5
2018-Jun-24 16:00N 48°46' W 125°38'5 9.8
2018-Jun-24 15:30N 48°44' W 125°31'510.0
2018-Jun-24 15:00N 48°43' W 125°24'510.5
2018-Jun-24 14:30N 48°41' W 125°17'510.9
2018-Jun-24 14:00N 48°38' W 125°09'511.0
2018-Jun-24 13:30N 48°36' W 125°02'510.9
2018-Jun-24 13:00N 48°34' W 124°54'611.1
2018-Jun-24 12:30N 48°32' W 124°46'511.1
2018-Jun-24 12:00N 48°30' W 124°39'611.4
2018-Jun-24 11:30N 48°28' W 124°31'611.2
2018-Jun-24 11:00N 48°25' W 124°23'510.6
2018-Jun-24 10:30N 48°23' W 124°15'5 9.9
2018-Jun-24 10:00N 48°22' W 124°09'5 9.8
2018-Jun-24 09:30N 48°20' W 124°02'5 9.2
2018-Jun-24 09:00N 48°18' W 123°55'5 9.6
2018-Jun-24 08:30N 48°17' W 123°48'7 9.2
2018-Jun-24 07:45N 48°16' W 123°38'4 8.5
2018-Jun-24 07:15N 48°15' W 123°32'2 8.3
2018-Jun-24 07:00N 48°15' W 123°29'4 8.0
2018-Jun-24 06:30N 48°14' W 123°23'5 8.5
2018-Jun-24 05:55N 48°14' W 123°15'11 9.3
2018-Jun-24 04:44N 48°13' W 122°59'4 9.4
2018-Jun-24 04:19N 48°12' W 122°53'12 9.3
2018-Jun-24 02:59N 48°05' W 122°39'610.9
2018-Jun-24 02:26N 47°59' W 122°35'510.7
2018-Jun-24 02:00N 47°56' W 122°30'510.1
2018-Jun-24 01:30N 47°51' W 122°27'5 9.6
2018-Jun-24 01:00N 47°47' W 122°26'5 9.9
2018-Jun-24 00:30N 47°42' W 122°25'2 4.2
2018-Jun-24 00:00N 47°40' W 122°24'0 0.5
2018-Jun-23 23:30N 47°40' W 122°23'0 0.0
2018-Jun-23 23:00N 47°40' W 122°23'0 0.0
2018-Jun-23 22:30N 47°40' W 122°23'0 0.0
2018-Jun-23 22:00N 47°40' W 122°23'0 0.0
2018-Jun-23 21:30N 47°40' W 122°23'0 0.0
2018-Jun-23 21:00N 47°40' W 122°23'0 0.0
2018-Jun-23 20:30N 47°40' W 122°23'0 0.0
2018-Jun-23 20:00N 47°40' W 122°23'0 0.0
2018-Jun-23 19:30N 47°40' W 122°23'0 0.0
2018-Jun-23 19:00N 47°40' W 122°23'0 0.0
2018-Jun-23 18:30N 47°40' W 122°23'0 0.0
2018-Jun-23 18:00N 47°40' W 122°23'0 0.0
2018-Jun-23 17:30N 47°40' W 122°23'0 0.0
2018-Jun-23 17:00N 47°40' W 122°23'0 0.0
2018-Jun-23 16:30N 47°40' W 122°23'0 0.0
2018-Jun-23 16:00N 47°40' W 122°23'0 0.0
2018-Jun-23 15:30N 47°40' W 122°23'0 0.0
2018-Jun-23 15:00N 47°40' W 122°23'0 0.0
2018-Jun-23 14:30N 47°40' W 122°23'0 0.0
2018-Jun-23 14:00N 47°40' W 122°23'0 0.0
2018-Jun-23 13:30N 47°40' W 122°23'0 0.0
2018-Jun-23 13:00N 47°40' W 122°23'0 0.0
2018-Jun-23 12:30N 47°40' W 122°23'0 0.0
2018-Jun-23 12:00N 47°40' W 122°23'0 0.0
2018-Jun-23 11:30N 47°40' W 122°23'0 0.0
2018-Jun-23 11:00N 47°40' W 122°23'0 0.0
2018-Jun-23 10:30N 47°40' W 122°23'0 0.0
2018-Jun-23 10:01N 47°40' W 122°23'0 0.0
2018-Jun-23 09:30N 47°40' W 122°23'0 0.0
2018-Jun-23 09:00N 47°40' W 122°23'0 0.0
2018-Jun-23 08:30N 47°40' W 122°23'0 0.0
2018-Jun-23 08:00N 47°40' W 122°23'0 0.0
2018-Jun-23 07:30N 47°40' W 122°23'0 0.0
2018-Jun-23 07:00N 47°40' W 122°23'0 0.0
2018-Jun-23 06:30N 47°40' W 122°23'0 0.0
2018-Jun-23 06:00N 47°40' W 122°23'0 0.0
2018-Jun-23 05:30N 47°40' W 122°23'0 0.0
2018-Jun-23 05:00N 47°40' W 122°23'0 0.0
2018-Jun-23 04:30N 47°40' W 122°23'0 0.0
2018-Jun-23 04:00N 47°40' W 122°23'0 0.0
2018-Jun-23 03:30N 47°40' W 122°23'0 0.0
2018-Jun-23 03:00N 47°40' W 122°23'0 0.0
2018-Jun-23 02:30N 47°40' W 122°23'0 0.0
2018-Jun-23 02:00N 47°40' W 122°23'0 0.0
2018-Jun-23 01:30N 47°40' W 122°23'0 0.0
2018-Jun-23 01:00N 47°40' W 122°23'0 0.0
2018-Jun-23 00:30N 47°40' W 122°23'0 0.0
2018-Jun-23 00:00N 47°40' W 122°23'0 0.0
2018-Jun-22 23:30N 47°40' W 122°23'0 0.0
2018-Jun-22 22:57N 47°40' W 122°23'0 0.0
2018-Jun-22 22:30N 47°40' W 122°23'0 0.0
2018-Jun-22 22:00N 47°40' W 122°23'0 0.0
2018-Jun-22 21:30N 47°40' W 122°23'0 0.0
2018-Jun-22 20:58N 47°40' W 122°23'0 0.0
2018-Jun-22 20:30N 47°40' W 122°23'0 0.0
2018-Jun-22 20:00N 47°40' W 122°23'0 0.0
2018-Jun-22 19:30N 47°40' W 122°23'0 0.0
2018-Jun-22 19:00N 47°40' W 122°23'0 0.0
2018-Jun-22 18:30N 47°40' W 122°23'0 0.0
2018-Jun-22 18:00N 47°40' W 122°23'0 0.0
2018-Jun-22 17:30N 47°40' W 122°23'0 0.0
2018-Jun-22 17:00N 47°40' W 122°23'0 0.0
2018-Jun-22 16:30N 47°40' W 122°23'0 0.0
2018-Jun-22 16:00N 47°40' W 122°23'0 0.0
2018-Jun-22 15:30N 47°40' W 122°23'0 0.0
2018-Jun-22 15:00N 47°40' W 122°23'0 0.0
2018-Jun-22 14:30N 47°40' W 122°23'0 0.0
2018-Jun-22 14:00N 47°40' W 122°23'0 0.0
2018-Jun-22 13:30N 47°40' W 122°23'0 0.0
2018-Jun-22 13:00N 47°40' W 122°23'0 0.0
2018-Jun-22 12:29N 47°40' W 122°23'0 0.0
2018-Jun-22 12:00N 47°40' W 122°23'0 0.0
2018-Jun-22 11:30N 47°40' W 122°23'0 0.0
2018-Jun-22 11:00N 47°40' W 122°23'0 0.0
2018-Jun-22 10:30N 47°40' W 122°23'0 0.0
2018-Jun-22 10:00N 47°40' W 122°23'0 0.0
2018-Jun-22 09:30N 47°40' W 122°23'0 0.0
2018-Jun-22 09:00N 47°40' W 122°23'0 0.0
2018-Jun-22 08:30N 47°40' W 122°23'0 0.0
2018-Jun-22 08:00N 47°40' W 122°23'0 0.0
2018-Jun-22 07:30N 47°40' W 122°23'0 0.0
2018-Jun-22 07:00N 47°40' W 122°23'0 0.0
2018-Jun-22 06:30N 47°40' W 122°23'0 0.0
2018-Jun-22 06:00N 47°40' W 122°23'0 0.0
2018-Jun-22 05:30N 47°40' W 122°23'0 0.0
2018-Jun-22 05:00N 47°40' W 122°23'0 0.0
2018-Jun-22 04:30N 47°40' W 122°23'0 0.0
2018-Jun-22 04:00N 47°40' W 122°23'0 0.0
2018-Jun-22 03:30N 47°40' W 122°23'0 0.0
2018-Jun-22 03:00N 47°40' W 122°23'0 0.0
2018-Jun-22 02:30N 47°40' W 122°23'0 0.0
2018-Jun-22 02:00N 47°40' W 122°23'0 0.0
2018-Jun-22 01:30N 47°40' W 122°23'0 0.0
2018-Jun-22 01:00N 47°40' W 122°23'0 0.0
2018-Jun-22 00:30N 47°40' W 122°23'0 0.0
2018-Jun-22 00:00N 47°40' W 122°23'0 0.0
2018-Jun-21 23:30N 47°40' W 122°23'0 0.0
2018-Jun-21 23:00N 47°40' W 122°23'0 0.0
2018-Jun-21 22:30N 47°40' W 122°23'0 0.0
2018-Jun-21 22:00N 47°40' W 122°23'0 0.0
2018-Jun-21 21:30N 47°40' W 122°23'0 0.0
2018-Jun-21 21:00N 47°40' W 122°23'0 0.0
2018-Jun-21 20:30N 47°40' W 122°23'0 0.0
2018-Jun-21 20:00N 47°40' W 122°23'0 0.0
2018-Jun-21 19:30N 47°40' W 122°23'0 0.0
2018-Jun-21 19:00N 47°40' W 122°23'0 0.0
2018-Jun-21 18:30N 47°40' W 122°23'0 0.0
2018-Jun-21 18:00N 47°40' W 122°23'0 0.0
2018-Jun-21 17:30N 47°40' W 122°23'0 0.0
2018-Jun-21 17:00N 47°40' W 122°23'0 0.0
2018-Jun-21 16:30N 47°40' W 122°23'0 0.0
2018-Jun-21 16:00N 47°40' W 122°23'0 0.0
2018-Jun-21 15:30N 47°40' W 122°23'0 0.0
2018-Jun-21 15:00N 47°40' W 122°23'0 0.0
2018-Jun-21 14:30N 47°40' W 122°23'0 0.0
2018-Jun-21 14:00N 47°40' W 122°23'0 0.0
2018-Jun-21 13:30N 47°40' W 122°23'0 0.0
2018-Jun-21 13:00N 47°40' W 122°23'0 0.0
2018-Jun-21 12:30N 47°40' W 122°23'0 0.0
2018-Jun-21 12:00N 47°40' W 122°23'0 0.0
2018-Jun-21 11:30N 47°40' W 122°23'0 0.0
2018-Jun-21 11:00N 47°40' W 122°23'0 0.0
2018-Jun-21 10:30N 47°40' W 122°23'0 0.0
2018-Jun-21 10:00N 47°40' W 122°23'0 0.0
2018-Jun-21 09:30N 47°40' W 122°23'0 0.0
2018-Jun-21 09:00N 47°40' W 122°23'0 0.0
2018-Jun-21 08:30N 47°40' W 122°23'0 0.0
2018-Jun-21 08:00N 47°40' W 122°23'0 0.0
2018-Jun-21 07:30N 47°40' W 122°23'0 0.0
2018-Jun-21 07:00N 47°40' W 122°23'0 0.0
2018-Jun-21 06:31N 47°40' W 122°23'0 0.0
2018-Jun-21 06:00N 47°40' W 122°23'0 0.0
2018-Jun-21 05:30N 47°40' W 122°23'0 0.0
2018-Jun-21 05:00N 47°40' W 122°23'0 0.0
2018-Jun-21 04:30N 47°40' W 122°23'0 0.0
2018-Jun-21 04:00N 47°40' W 122°23'0 0.0
2018-Jun-21 03:30N 47°40' W 122°23'0 0.0
2018-Jun-21 03:00N 47°40' W 122°23'0 0.0
2018-Jun-21 02:30N 47°40' W 122°23'0 0.0
2018-Jun-21 02:00N 47°40' W 122°23'0 0.0
2018-Jun-21 01:30N 47°40' W 122°23'0 0.0
2018-Jun-21 01:00N 47°40' W 122°23'0 0.0
2018-Jun-21 00:30N 47°40' W 122°23'0 0.0
2018-Jun-21 00:00N 47°40' W 122°23'0 0.0
2018-Jun-20 23:30N 47°40' W 122°23'0 0.0
2018-Jun-20 23:01N 47°40' W 122°23'0 0.0
2018-Jun-20 22:30N 47°40' W 122°23'0 0.0
2018-Jun-20 22:00N 47°40' W 122°23'0 0.0
2018-Jun-20 21:30N 47°40' W 122°23'0 0.0
2018-Jun-20 21:00N 47°40' W 122°23'0 0.0
2018-Jun-20 20:30N 47°40' W 122°23'0 0.0
2018-Jun-20 20:00N 47°40' W 122°23'0 0.0
2018-Jun-20 19:30N 47°40' W 122°23'0 0.0
2018-Jun-20 19:00N 47°40' W 122°23'0 0.0
2018-Jun-20 18:30N 47°40' W 122°23'0 0.0
2018-Jun-20 18:00N 47°40' W 122°23'0 0.0
2018-Jun-20 17:30N 47°40' W 122°23'0 0.0
2018-Jun-20 17:00N 47°40' W 122°23'0 0.0
2018-Jun-20 16:30N 47°40' W 122°23'0 0.0
2018-Jun-20 16:01N 47°40' W 122°23'0 0.0
2018-Jun-20 15:30N 47°40' W 122°23'0 0.0
2018-Jun-20 15:00N 47°40' W 122°23'0 0.0
2018-Jun-20 14:30N 47°40' W 122°23'0 0.0
2018-Jun-20 14:00N 47°40' W 122°23'0 0.1
2018-Jun-20 13:30N 47°40' W 122°23'0 0.0
2018-Jun-20 13:00N 47°40' W 122°23'0 0.0
2018-Jun-20 12:30N 47°40' W 122°23'0 0.0
2018-Jun-20 12:00N 47°40' W 122°23'0 0.0
2018-Jun-20 11:30N 47°40' W 122°23'0 0.0
2018-Jun-20 11:00N 47°40' W 122°23'0 0.0
2018-Jun-20 10:30N 47°40' W 122°23'0 0.0
2018-Jun-20 10:00N 47°40' W 122°23'0 0.0
2018-Jun-20 09:30N 47°40' W 122°23'0 0.0
2018-Jun-20 09:00N 47°40' W 122°23'0 0.0
2018-Jun-20 08:30N 47°40' W 122°23'0 0.0
2018-Jun-20 08:00N 47°40' W 122°23'0 0.0
2018-Jun-20 07:30N 47°40' W 122°23'0 0.0
2018-Jun-20 07:00N 47°40' W 122°23'0 0.0
2018-Jun-20 06:30N 47°40' W 122°23'0 0.0
2018-Jun-20 06:00N 47°40' W 122°23'0 0.0
2018-Jun-20 05:30N 47°40' W 122°23'0 0.0
2018-Jun-20 05:00N 47°40' W 122°23'0 0.0
2018-Jun-20 04:30N 47°40' W 122°23'0 0.0
2018-Jun-20 04:00N 47°40' W 122°23'0 0.0
2018-Jun-20 03:30N 47°40' W 122°23'0 0.0
2018-Jun-20 03:00N 47°40' W 122°23'0 0.0
2018-Jun-20 02:30N 47°40' W 122°23'0 0.0
2018-Jun-20 02:00N 47°40' W 122°23'0 0.0
2018-Jun-20 01:30N 47°40' W 122°23'0 0.0
2018-Jun-20 01:00N 47°40' W 122°23'0 0.0
2018-Jun-20 00:30N 47°40' W 122°23'0 0.0
2018-Jun-20 00:00N 47°40' W 122°23'0 0.0
2018-Jun-19 23:30N 47°40' W 122°23'0 0.0
2018-Jun-19 23:00N 47°40' W 122°23'0 0.0
2018-Jun-19 22:30N 47°40' W 122°23'0 0.0
2018-Jun-19 22:00N 47°40' W 122°23'0 0.0
2018-Jun-19 21:30N 47°40' W 122°23'0 0.0
2018-Jun-19 21:00N 47°40' W 122°23'0 0.0
2018-Jun-19 20:30N 47°40' W 122°23'0 0.0
2018-Jun-19 20:00N 47°40' W 122°23'0 0.0
2018-Jun-19 19:30N 47°40' W 122°23'0 0.0
2018-Jun-19 19:00N 47°40' W 122°23'0 0.0
2018-Jun-19 18:30N 47°40' W 122°23'0 0.0
2018-Jun-19 18:00N 47°40' W 122°23'0 0.0
2018-Jun-19 17:30N 47°40' W 122°23'0 0.0
2018-Jun-19 17:00N 47°40' W 122°23'0 0.0
2018-Jun-19 16:30N 47°40' W 122°23'0 0.0
2018-Jun-19 16:00N 47°40' W 122°23'0 0.0
2018-Jun-19 15:30N 47°40' W 122°23'0 0.0
2018-Jun-19 15:00N 47°40' W 122°23'0 0.0
2018-Jun-19 14:30N 47°40' W 122°23'0 0.0
2018-Jun-19 14:00N 47°40' W 122°23'0 0.0
2018-Jun-19 13:30N 47°40' W 122°23'0 0.0
2018-Jun-19 13:00N 47°40' W 122°23'0 0.0
2018-Jun-19 12:30N 47°40' W 122°23'0 0.0
2018-Jun-19 12:00N 47°40' W 122°23'0 0.0
2018-Jun-19 11:30N 47°40' W 122°23'0 0.0
2018-Jun-19 11:00N 47°40' W 122°23'0 0.0
2018-Jun-19 10:30N 47°40' W 122°23'0 0.0
2018-Jun-19 10:00N 47°40' W 122°23'0 0.0
2018-Jun-19 09:30N 47°40' W 122°23'0 0.0
2018-Jun-19 09:00N 47°40' W 122°23'0 0.0
2018-Jun-19 08:30N 47°40' W 122°23'0 0.0
2018-Jun-19 08:00N 47°40' W 122°23'0 0.0
2018-Jun-19 07:30N 47°40' W 122°23'0 0.0
2018-Jun-19 07:00N 47°40' W 122°23'0 0.0
2018-Jun-19 06:30N 47°40' W 122°23'0 0.0
2018-Jun-19 06:00N 47°40' W 122°23'0 0.0
2018-Jun-19 05:30N 47°40' W 122°23'0 0.0
2018-Jun-19 05:00N 47°40' W 122°23'0 0.0
2018-Jun-19 04:30N 47°40' W 122°23'0 0.0
2018-Jun-19 04:00N 47°40' W 122°23'0 0.0
2018-Jun-19 03:30N 47°40' W 122°23'0 0.0
2018-Jun-19 03:00N 47°40' W 122°23'0 0.0
2018-Jun-19 02:30N 47°40' W 122°23'0 0.0
2018-Jun-19 02:00N 47°40' W 122°23'0 0.0
2018-Jun-19 01:30N 47°40' W 122°23'0 0.0
2018-Jun-19 01:00N 47°40' W 122°23'0 0.0
2018-Jun-19 00:30N 47°40' W 122°23'0 0.0
2018-Jun-19 00:00N 47°40' W 122°23'0 0.0
2018-Jun-18 23:30N 47°40' W 122°23'0 0.0
2018-Jun-18 23:00N 47°40' W 122°23'0 0.0
2018-Jun-18 22:30N 47°40' W 122°23'0 0.0
2018-Jun-18 22:01N 47°40' W 122°23'0 0.0
2018-Jun-18 21:30N 47°40' W 122°23'0 0.0
2018-Jun-18 21:00N 47°40' W 122°23'0 0.0
2018-Jun-18 20:30N 47°40' W 122°23'0 0.0
2018-Jun-18 20:00N 47°40' W 122°23'0 0.0
2018-Jun-18 19:30N 47°40' W 122°23'0 0.0
2018-Jun-18 19:00N 47°40' W 122°23'0 0.0
2018-Jun-18 18:30N 47°40' W 122°23'0 0.0
2018-Jun-18 18:00N 47°40' W 122°23'0 0.0
2018-Jun-18 17:30N 47°40' W 122°23'0 0.0
2018-Jun-18 17:00N 47°40' W 122°23'0 0.0
2018-Jun-18 16:30N 47°40' W 122°23'0 0.0
2018-Jun-18 16:00N 47°40' W 122°23'0 0.0
2018-Jun-18 15:30N 47°40' W 122°23'0 0.0
2018-Jun-18 15:00N 47°40' W 122°23'0 0.0
2018-Jun-18 14:30N 47°40' W 122°23'0 0.0
2018-Jun-18 14:00N 47°40' W 122°23'0 0.0
2018-Jun-18 13:31N 47°40' W 122°23'0 0.0
2018-Jun-18 13:00N 47°40' W 122°23'0 0.0
2018-Jun-18 12:30N 47°40' W 122°23'0 0.0
2018-Jun-18 12:00N 47°40' W 122°23'0 0.0
2018-Jun-18 11:30N 47°40' W 122°23'0 0.0
2018-Jun-18 11:00N 47°40' W 122°23'0 0.0
2018-Jun-18 10:30N 47°40' W 122°23'0 0.0
2018-Jun-18 10:00N 47°40' W 122°23'0 0.0
2018-Jun-18 09:30N 47°40' W 122°23'0 0.0
2018-Jun-18 09:00N 47°40' W 122°23'0 0.0
2018-Jun-18 08:30N 47°40' W 122°23'0 0.0
2018-Jun-18 08:00N 47°40' W 122°23'0 0.0
2018-Jun-18 07:30N 47°40' W 122°23'0 0.0
2018-Jun-18 07:00N 47°40' W 122°23'0 0.0
2018-Jun-18 06:30N 47°40' W 122°23'0 0.0
2018-Jun-18 06:00N 47°40' W 122°23'0 0.0
2018-Jun-18 05:30N 47°40' W 122°23'0 0.0
2018-Jun-18 05:00N 47°40' W 122°23'0 0.0
2018-Jun-18 04:30N 47°40' W 122°23'0 0.0
2018-Jun-18 04:00N 47°40' W 122°23'0 0.0
2018-Jun-18 03:30N 47°40' W 122°23'0 0.0
2018-Jun-18 03:00N 47°40' W 122°23'0 0.0
2018-Jun-18 02:30N 47°40' W 122°23'0 0.0
2018-Jun-18 02:00N 47°40' W 122°23'0 0.0
2018-Jun-18 01:30N 47°40' W 122°23'0 0.0
2018-Jun-18 01:00N 47°40' W 122°23'0 0.0
2018-Jun-18 00:30N 47°40' W 122°23'0 0.0
2018-Jun-18 00:00N 47°40' W 122°23'0 0.0
2018-Jun-17 23:30N 47°40' W 122°23'0 0.0
2018-Jun-17 23:00N 47°40' W 122°23'0 0.0
2018-Jun-17 22:30N 47°40' W 122°23'0 0.0
2018-Jun-17 22:00N 47°40' W 122°23'0 0.0
2018-Jun-17 21:30N 47°40' W 122°23'0 0.0
2018-Jun-17 21:00N 47°40' W 122°23'0 0.0
2018-Jun-17 20:30N 47°40' W 122°23'0 0.0
2018-Jun-17 20:00N 47°40' W 122°23'0 0.0
2018-Jun-17 19:30N 47°40' W 122°23'0 0.0
2018-Jun-17 19:00N 47°40' W 122°23'0 0.0
2018-Jun-17 18:30N 47°40' W 122°23'0 0.0
2018-Jun-17 18:00N 47°40' W 122°23'0 0.0
2018-Jun-17 17:30N 47°40' W 122°23'0 0.0
2018-Jun-17 17:00N 47°40' W 122°23'0 0.0
2018-Jun-17 16:30N 47°40' W 122°23'0 0.0
2018-Jun-17 16:00N 47°40' W 122°23'0 0.0
2018-Jun-17 15:30N 47°40' W 122°23'0 0.0
2018-Jun-17 15:00N 47°40' W 122°23'0 0.0
2018-Jun-17 14:30N 47°40' W 122°23'0 0.0
2018-Jun-17 14:00N 47°40' W 122°23'0 0.0
2018-Jun-17 13:29N 47°40' W 122°23'0 0.0
2018-Jun-17 13:00N 47°40' W 122°23'0 0.0
2018-Jun-17 12:30N 47°40' W 122°23'0 0.0
2018-Jun-17 12:00N 47°40' W 122°23'0 0.0
2018-Jun-17 11:30N 47°40' W 122°23'0 0.0
2018-Jun-17 11:00N 47°40' W 122°23'0 0.0
2018-Jun-17 10:30N 47°40' W 122°23'0 0.0
2018-Jun-17 10:00N 47°40' W 122°23'0 0.0
2018-Jun-17 09:30N 47°40' W 122°23'0 0.0
2018-Jun-17 09:00N 47°40' W 122°23'0 0.0
2018-Jun-17 08:30N 47°40' W 122°23'0 0.0
2018-Jun-17 08:00N 47°40' W 122°23'0 0.0
2018-Jun-17 07:30N 47°40' W 122°23'0 0.0
2018-Jun-17 07:00N 47°40' W 122°23'0 0.0
2018-Jun-17 06:30N 47°40' W 122°23'0 0.0
2018-Jun-17 06:00N 47°40' W 122°23'0 0.0
2018-Jun-17 05:30N 47°40' W 122°23'0 0.0
2018-Jun-17 05:00N 47°40' W 122°23'0 0.0
2018-Jun-17 04:30N 47°40' W 122°23'0 0.0
2018-Jun-17 04:00N 47°40' W 122°23'0 0.0
2018-Jun-17 03:30N 47°40' W 122°23'0 0.0
2018-Jun-17 03:00N 47°40' W 122°23'0 0.0
2018-Jun-17 02:30N 47°40' W 122°23'0 0.0
2018-Jun-17 02:00N 47°40' W 122°23'0 0.0
2018-Jun-17 01:30N 47°40' W 122°23'0 0.0
2018-Jun-17 01:00N 47°40' W 122°23'0 0.0
2018-Jun-17 00:30N 47°40' W 122°23'0 0.0
2018-Jun-17 00:00N 47°40' W 122°23'0 0.0
2018-Jun-16 23:30N 47°40' W 122°23'0 0.0
2018-Jun-16 23:00N 47°40' W 122°23'0 0.0
2018-Jun-16 22:30N 47°40' W 122°23'0 0.0
2018-Jun-16 22:00N 47°40' W 122°23'0 0.0
2018-Jun-16 21:30N 47°40' W 122°23'0 0.0
2018-Jun-16 21:00N 47°40' W 122°23'0 0.0
2018-Jun-16 20:30N 47°40' W 122°23'0 0.0
2018-Jun-16 20:00N 47°40' W 122°23'0 0.0
2018-Jun-16 19:30N 47°40' W 122°23'0 0.0
2018-Jun-16 19:00N 47°40' W 122°23'0 0.0
2018-Jun-16 18:30N 47°40' W 122°23'0 0.0
2018-Jun-16 18:00N 47°40' W 122°23'0 0.0
2018-Jun-16 17:30N 47°40' W 122°23'0 0.0
2018-Jun-16 17:00N 47°40' W 122°23'0 0.0
2018-Jun-16 16:30N 47°40' W 122°23'0 0.0
2018-Jun-16 16:00N 47°40' W 122°23'0 0.0
2018-Jun-16 15:30N 47°40' W 122°23'0 0.0
2018-Jun-16 15:00N 47°40' W 122°23'0 0.0
2018-Jun-16 14:30N 47°40' W 122°23'0 0.0
2018-Jun-16 14:00N 47°40' W 122°23'0 0.0
2018-Jun-16 13:30N 47°40' W 122°23'0 0.0
2018-Jun-16 13:00N 47°40' W 122°23'0 0.0
2018-Jun-16 12:30N 47°40' W 122°23'0 0.0
2018-Jun-16 12:00N 47°40' W 122°23'0 0.0
2018-Jun-16 11:30N 47°40' W 122°23'0 0.0
2018-Jun-16 11:00N 47°40' W 122°23'0 0.0
2018-Jun-16 10:30N 47°40' W 122°23'0 0.0
2018-Jun-16 10:00N 47°40' W 122°23'0 0.0
2018-Jun-16 09:30N 47°40' W 122°23'0 0.0
2018-Jun-16 09:00N 47°40' W 122°23'0 0.0
2018-Jun-16 08:30N 47°40' W 122°23'0 0.0
2018-Jun-16 08:00N 47°40' W 122°23'0 0.0
2018-Jun-16 07:30N 47°40' W 122°23'0 0.0
2018-Jun-16 07:00N 47°40' W 122°23'0 0.0
2018-Jun-16 06:30N 47°40' W 122°23'0 0.0
2018-Jun-16 06:00N 47°40' W 122°23'0 0.0
2018-Jun-16 05:30N 47°40' W 122°23'0 0.0
2018-Jun-16 05:00N 47°40' W 122°23'0 0.0
2018-Jun-16 04:30N 47°40' W 122°23'0 0.0
2018-Jun-16 04:00N 47°40' W 122°23'0 0.0
2018-Jun-16 03:30N 47°40' W 122°23'0 0.0
2018-Jun-16 03:00N 47°40' W 122°23'0 0.0
2018-Jun-16 02:30N 47°40' W 122°23'0 0.0
2018-Jun-16 02:00N 47°40' W 122°23'0 0.0
2018-Jun-16 01:30N 47°40' W 122°23'0 0.0
2018-Jun-16 01:00N 47°40' W 122°23'0 0.0
2018-Jun-16 00:30N 47°40' W 122°23'0 0.0
2018-Jun-16 00:00N 47°40' W 122°23'0 0.0
2018-Jun-15 23:30N 47°40' W 122°23'0 0.0
2018-Jun-15 23:00N 47°40' W 122°23'0 0.0
2018-Jun-15 22:30N 47°40' W 122°23'0 0.0
2018-Jun-15 22:00N 47°40' W 122°23'0 0.0
2018-Jun-15 21:31N 47°40' W 122°23'0 0.0
2018-Jun-15 21:00N 47°40' W 122°23'0 0.0
2018-Jun-15 20:30N 47°40' W 122°23'0 0.0
2018-Jun-15 20:00N 47°40' W 122°23'0 0.0
2018-Jun-15 19:30N 47°40' W 122°23'0 0.0
2018-Jun-15 19:00N 47°40' W 122°23'0 0.0
2018-Jun-15 18:30N 47°40' W 122°23'0 0.0
2018-Jun-15 18:00N 47°40' W 122°23'0 0.0
2018-Jun-15 17:30N 47°40' W 122°23'0 0.0
2018-Jun-15 17:00N 47°40' W 122°23'0 0.0
2018-Jun-15 16:30N 47°40' W 122°23'0 0.0
2018-Jun-15 16:00N 47°40' W 122°23'0 0.0
2018-Jun-15 15:30N 47°40' W 122°23'0 0.0
2018-Jun-15 15:00N 47°40' W 122°23'0 0.0
2018-Jun-15 14:30N 47°40' W 122°23'0 0.0
2018-Jun-15 14:00N 47°40' W 122°23'0 0.0
2018-Jun-15 13:30N 47°40' W 122°23'0 0.0
2018-Jun-15 13:00N 47°40' W 122°23'0 0.0
2018-Jun-15 12:30N 47°40' W 122°23'0 0.0
2018-Jun-15 12:00N 47°40' W 122°23'0 0.0
2018-Jun-15 11:30N 47°40' W 122°23'0 0.0
2018-Jun-15 11:00N 47°40' W 122°23'0 0.0
2018-Jun-15 10:30N 47°40' W 122°23'0 0.0
2018-Jun-15 10:00N 47°40' W 122°23'0 0.0
2018-Jun-15 09:30N 47°40' W 122°23'0 0.0
2018-Jun-15 09:00N 47°40' W 122°23'0 0.0
2018-Jun-15 08:30N 47°40' W 122°23'0 0.0
2018-Jun-15 08:00N 47°40' W 122°23'0 0.0
2018-Jun-15 07:30N 47°40' W 122°23'0 0.0
2018-Jun-15 07:00N 47°40' W 122°23'0 0.0
2018-Jun-15 06:30N 47°40' W 122°23'0 0.0
2018-Jun-15 06:00N 47°40' W 122°23'0 0.0
2018-Jun-15 05:30N 47°40' W 122°23'0 0.0
2018-Jun-15 05:00N 47°40' W 122°23'0 0.0
2018-Jun-15 04:30N 47°40' W 122°23'0 0.0
2018-Jun-15 04:00N 47°40' W 122°23'0 0.0
2018-Jun-15 03:30N 47°40' W 122°23'0 0.0
2018-Jun-15 03:00N 47°40' W 122°23'0 0.0
2018-Jun-15 02:31N 47°40' W 122°23'0 0.0
2018-Jun-15 02:00N 47°40' W 122°23'0 0.0
2018-Jun-15 01:30N 47°40' W 122°23'0 0.0
2018-Jun-15 01:00N 47°40' W 122°23'0 0.5
2018-Jun-15 00:30N 47°40' W 122°24'1 1.7
2018-Jun-15 00:00N 47°40' W 122°25'1 1.5
2018-Jun-14 23:30N 47°40' W 122°24'  
Track history (hours):
 
Tides and Currents Weather Stations Pressure Air Temp Water Temp Dewpoint Dewpoint Depression Visibility Wind Speed Wind Dir Waves Ship Positions

Pinnacle

Owner: FV PINNACLE INC, SNOHOMISH, WA. More information available from US FCC via Universal Licensing System and Coast Guard Vessel Documentation Center.

Last reported at 2018-Jun-24 23:18 UTC. Time now 2018-Jul-21 15:35 UTC.
Position N 49°18' W 127°13'.
Warning: this ship's position is 26 days out of date.

Length 47 m; draft 16 m.

MMSI: 303072000.

Date/timePositionNaut miles runAvg speedWind from/ knotsBaromVisibWave heightAir tempDewpointWater temp
2018-Jun-24 23:18N 49°18' W 127°13'4 9.7
2018-Jun-24 22:52N 49°16' W 127°07'4 9.7
2018-Jun-24 22:30N 49°14' W 127°03'5 9.6
2018-Jun-24 22:00N 49°12' W 126°57'5 9.5
2018-Jun-24 21:30N 49°09' W 126°51'5 9.4
2018-Jun-24 21:00N 49°06' W 126°45'5 9.5
2018-Jun-24 20:30N 49°04' W 126°39'5 9.5
2018-Jun-24 20:00N 49°01' W 126°32'5 9.4
2018-Jun-24 19:30N 48°59' W 126°26'5 9.6
2018-Jun-24 19:00N 48°56' W 126°20'5 9.6
2018-Jun-24 18:30N 48°55' W 126°13'5 9.8
2018-Jun-24 18:00N 48°53' W 126°06'510.0
2018-Jun-24 17:30N 48°51' W 125°59'5 9.9
2018-Jun-24 17:00N 48°49' W 125°52'5 9.8
2018-Jun-24 16:30N 48°48' W 125°45'5 9.5
2018-Jun-24 16:00N 48°46' W 125°38'5 9.8
2018-Jun-24 15:30N 48°44' W 125°31'510.0
2018-Jun-24 15:00N 48°43' W 125°24'510.5
2018-Jun-24 14:30N 48°41' W 125°17'510.9
2018-Jun-24 14:00N 48°38' W 125°09'511.0
2018-Jun-24 13:30N 48°36' W 125°02'510.9
2018-Jun-24 13:00N 48°34' W 124°54'611.1
2018-Jun-24 12:30N 48°32' W 124°46'511.1
2018-Jun-24 12:00N 48°30' W 124°39'611.4
2018-Jun-24 11:30N 48°28' W 124°31'611.2
2018-Jun-24 11:00N 48°25' W 124°23'510.6
2018-Jun-24 10:30N 48°23' W 124°15'5 9.9
2018-Jun-24 10:00N 48°22' W 124°09'5 9.8
2018-Jun-24 09:30N 48°20' W 124°02'5 9.2
2018-Jun-24 09:00N 48°18' W 123°55'5 9.6
2018-Jun-24 08:30N 48°17' W 123°48'7 9.2
2018-Jun-24 07:45N 48°16' W 123°38'4 8.5
2018-Jun-24 07:15N 48°15' W 123°32'2 8.3
2018-Jun-24 07:00N 48°15' W 123°29'4 8.0
2018-Jun-24 06:30N 48°14' W 123°23'5 8.5
2018-Jun-24 05:55N 48°14' W 123°15'11 9.3
2018-Jun-24 04:44N 48°13' W 122°59'4 9.4
2018-Jun-24 04:19N 48°12' W 122°53'12 9.3
2018-Jun-24 02:59N 48°05' W 122°39'610.9
2018-Jun-24 02:26N 47°59' W 122°35'510.7
2018-Jun-24 02:00N 47°56' W 122°30'510.1
2018-Jun-24 01:30N 47°51' W 122°27'5 9.6
2018-Jun-24 01:00N 47°47' W 122°26'5 9.9
2018-Jun-24 00:30N 47°42' W 122°25'2 4.2
2018-Jun-24 00:00N 47°40' W 122°24'0 0.5
2018-Jun-23 23:30N 47°40' W 122°23'0 0.0
2018-Jun-23 23:00N 47°40' W 122°23'0 0.0
2018-Jun-23 22:30N 47°40' W 122°23'0 0.0
2018-Jun-23 22:00N 47°40' W 122°23'0 0.0
2018-Jun-23 21:30N 47°40' W 122°23'0 0.0
2018-Jun-23 21:00N 47°40' W 122°23'0 0.0
2018-Jun-23 20:30N 47°40' W 122°23'0 0.0
2018-Jun-23 20:00N 47°40' W 122°23'0 0.0
2018-Jun-23 19:30N 47°40' W 122°23'0 0.0
2018-Jun-23 19:00N 47°40' W 122°23'0 0.0
2018-Jun-23 18:30N 47°40' W 122°23'0 0.0
2018-Jun-23 18:00N 47°40' W 122°23'0 0.0
2018-Jun-23 17:30N 47°40' W 122°23'0 0.0
2018-Jun-23 17:00N 47°40' W 122°23'0 0.0
2018-Jun-23 16:30N 47°40' W 122°23'0 0.0
2018-Jun-23 16:00N 47°40' W 122°23'0 0.0
2018-Jun-23 15:30N 47°40' W 122°23'0 0.0
2018-Jun-23 15:00N 47°40' W 122°23'0 0.0
2018-Jun-23 14:30N 47°40' W 122°23'0 0.0
2018-Jun-23 14:00N 47°40' W 122°23'0 0.0
2018-Jun-23 13:30N 47°40' W 122°23'0 0.0
2018-Jun-23 13:00N 47°40' W 122°23'0 0.0
2018-Jun-23 12:30N 47°40' W 122°23'0 0.0
2018-Jun-23 12:00N 47°40' W 122°23'0 0.0
2018-Jun-23 11:30N 47°40' W 122°23'0 0.0
2018-Jun-23 11:00N 47°40' W 122°23'0 0.0
2018-Jun-23 10:30N 47°40' W 122°23'0 0.0
2018-Jun-23 10:01N 47°40' W 122°23'0 0.0
2018-Jun-23 09:30N 47°40' W 122°23'0 0.0
2018-Jun-23 09:00N 47°40' W 122°23'0 0.0
2018-Jun-23 08:30N 47°40' W 122°23'0 0.0
2018-Jun-23 08:00N 47°40' W 122°23'0 0.0
2018-Jun-23 07:30N 47°40' W 122°23'0 0.0
2018-Jun-23 07:00N 47°40' W 122°23'0 0.0
2018-Jun-23 06:30N 47°40' W 122°23'0 0.0
2018-Jun-23 06:00N 47°40' W 122°23'0 0.0
2018-Jun-23 05:30N 47°40' W 122°23'0 0.0
2018-Jun-23 05:00N 47°40' W 122°23'0 0.0
2018-Jun-23 04:30N 47°40' W 122°23'0 0.0
2018-Jun-23 04:00N 47°40' W 122°23'0 0.0
2018-Jun-23 03:30N 47°40' W 122°23'0 0.0
2018-Jun-23 03:00N 47°40' W 122°23'0 0.0
2018-Jun-23 02:30N 47°40' W 122°23'0 0.0
2018-Jun-23 02:00N 47°40' W 122°23'0 0.0
2018-Jun-23 01:30N 47°40' W 122°23'0 0.0
2018-Jun-23 01:00N 47°40' W 122°23'0 0.0
2018-Jun-23 00:30N 47°40' W 122°23'0 0.0
2018-Jun-23 00:00N 47°40' W 122°23'0 0.0
2018-Jun-22 23:30N 47°40' W 122°23'0 0.0
2018-Jun-22 22:57N 47°40' W 122°23'0 0.0
2018-Jun-22 22:30N 47°40' W 122°23'0 0.0
2018-Jun-22 22:00N 47°40' W 122°23'0 0.0
2018-Jun-22 21:30N 47°40' W 122°23'0 0.0
2018-Jun-22 20:58N 47°40' W 122°23'0 0.0
2018-Jun-22 20:30N 47°40' W 122°23'0 0.0
2018-Jun-22 20:00N 47°40' W 122°23'0 0.0
2018-Jun-22 19:30N 47°40' W 122°23'0 0.0
2018-Jun-22 19:00N 47°40' W 122°23'0 0.0
2018-Jun-22 18:30N 47°40' W 122°23'0 0.0
2018-Jun-22 18:00N 47°40' W 122°23'0 0.0
2018-Jun-22 17:30N 47°40' W 122°23'0 0.0
2018-Jun-22 17:00N 47°40' W 122°23'0 0.0
2018-Jun-22 16:30N 47°40' W 122°23'0 0.0
2018-Jun-22 16:00N 47°40' W 122°23'0 0.0
2018-Jun-22 15:30N 47°40' W 122°23'0 0.0
2018-Jun-22 15:00N 47°40' W 122°23'0 0.0
2018-Jun-22 14:30N 47°40' W 122°23'0 0.0
2018-Jun-22 14:00N 47°40' W 122°23'0 0.0
2018-Jun-22 13:30N 47°40' W 122°23'0 0.0
2018-Jun-22 13:00N 47°40' W 122°23'0 0.0
2018-Jun-22 12:29N 47°40' W 122°23'0 0.0
2018-Jun-22 12:00N 47°40' W 122°23'0 0.0
2018-Jun-22 11:30N 47°40' W 122°23'0 0.0
2018-Jun-22 11:00N 47°40' W 122°23'0 0.0
2018-Jun-22 10:30N 47°40' W 122°23'0 0.0
2018-Jun-22 10:00N 47°40' W 122°23'0 0.0
2018-Jun-22 09:30N 47°40' W 122°23'0 0.0
2018-Jun-22 09:00N 47°40' W 122°23'0 0.0
2018-Jun-22 08:30N 47°40' W 122°23'0 0.0
2018-Jun-22 08:00N 47°40' W 122°23'0 0.0
2018-Jun-22 07:30N 47°40' W 122°23'0 0.0
2018-Jun-22 07:00N 47°40' W 122°23'0 0.0
2018-Jun-22 06:30N 47°40' W 122°23'0 0.0
2018-Jun-22 06:00N 47°40' W 122°23'0 0.0
2018-Jun-22 05:30N 47°40' W 122°23'0 0.0
2018-Jun-22 05:00N 47°40' W 122°23'0 0.0
2018-Jun-22 04:30N 47°40' W 122°23'0 0.0
2018-Jun-22 04:00N 47°40' W 122°23'0 0.0
2018-Jun-22 03:30N 47°40' W 122°23'0 0.0
2018-Jun-22 03:00N 47°40' W 122°23'0 0.0
2018-Jun-22 02:30N 47°40' W 122°23'0 0.0
2018-Jun-22 02:00N 47°40' W 122°23'0 0.0
2018-Jun-22 01:30N 47°40' W 122°23'0 0.0
2018-Jun-22 01:00N 47°40' W 122°23'0 0.0
2018-Jun-22 00:30N 47°40' W 122°23'0 0.0
2018-Jun-22 00:00N 47°40' W 122°23'0 0.0
2018-Jun-21 23:30N 47°40' W 122°23'0 0.0
2018-Jun-21 23:00N 47°40' W 122°23'0 0.0
2018-Jun-21 22:30N 47°40' W 122°23'0 0.0
2018-Jun-21 22:00N 47°40' W 122°23'0 0.0
2018-Jun-21 21:30N 47°40' W 122°23'0 0.0
2018-Jun-21 21:00N 47°40' W 122°23'0 0.0
2018-Jun-21 20:30N 47°40' W 122°23'0 0.0
2018-Jun-21 20:00N 47°40' W 122°23'0 0.0
2018-Jun-21 19:30N 47°40' W 122°23'0 0.0
2018-Jun-21 19:00N 47°40' W 122°23'0 0.0
2018-Jun-21 18:30N 47°40' W 122°23'0 0.0
2018-Jun-21 18:00N 47°40' W 122°23'0 0.0
2018-Jun-21 17:30N 47°40' W 122°23'0 0.0
2018-Jun-21 17:00N 47°40' W 122°23'0 0.0
2018-Jun-21 16:30N 47°40' W 122°23'0 0.0
2018-Jun-21 16:00N 47°40' W 122°23'0 0.0
2018-Jun-21 15:30N 47°40' W 122°23'0 0.0
2018-Jun-21 15:00N 47°40' W 122°23'0 0.0
2018-Jun-21 14:30N 47°40' W 122°23'0 0.0
2018-Jun-21 14:00N 47°40' W 122°23'0 0.0
2018-Jun-21 13:30N 47°40' W 122°23'0 0.0
2018-Jun-21 13:00N 47°40' W 122°23'0 0.0
2018-Jun-21 12:30N 47°40' W 122°23'0 0.0
2018-Jun-21 12:00N 47°40' W 122°23'0 0.0
2018-Jun-21 11:30N 47°40' W 122°23'0 0.0
2018-Jun-21 11:00N 47°40' W 122°23'0 0.0
2018-Jun-21 10:30N 47°40' W 122°23'0 0.0
2018-Jun-21 10:00N 47°40' W 122°23'0 0.0
2018-Jun-21 09:30N 47°40' W 122°23'0 0.0
2018-Jun-21 09:00N 47°40' W 122°23'0 0.0
2018-Jun-21 08:30N 47°40' W 122°23'0 0.0
2018-Jun-21 08:00N 47°40' W 122°23'0 0.0
2018-Jun-21 07:30N 47°40' W 122°23'0 0.0
2018-Jun-21 07:00N 47°40' W 122°23'0 0.0
2018-Jun-21 06:31N 47°40' W 122°23'0 0.0
2018-Jun-21 06:00N 47°40' W 122°23'0 0.0
2018-Jun-21 05:30N 47°40' W 122°23'0 0.0
2018-Jun-21 05:00N 47°40' W 122°23'0 0.0
2018-Jun-21 04:30N 47°40' W 122°23'0 0.0
2018-Jun-21 04:00N 47°40' W 122°23'0 0.0
2018-Jun-21 03:30N 47°40' W 122°23'0 0.0
2018-Jun-21 03:00N 47°40' W 122°23'0 0.0
2018-Jun-21 02:30N 47°40' W 122°23'0 0.0
2018-Jun-21 02:00N 47°40' W 122°23'0 0.0
2018-Jun-21 01:30N 47°40' W 122°23'0 0.0
2018-Jun-21 01:00N 47°40' W 122°23'0 0.0
2018-Jun-21 00:30N 47°40' W 122°23'0 0.0
2018-Jun-21 00:00N 47°40' W 122°23'0 0.0
2018-Jun-20 23:30N 47°40' W 122°23'0 0.0
2018-Jun-20 23:01N 47°40' W 122°23'0 0.0
2018-Jun-20 22:30N 47°40' W 122°23'0 0.0
2018-Jun-20 22:00N 47°40' W 122°23'0 0.0
2018-Jun-20 21:30N 47°40' W 122°23'0 0.0
2018-Jun-20 21:00N 47°40' W 122°23'0 0.0
2018-Jun-20 20:30N 47°40' W 122°23'0 0.0
2018-Jun-20 20:00N 47°40' W 122°23'0 0.0
2018-Jun-20 19:30N 47°40' W 122°23'0 0.0
2018-Jun-20 19:00N 47°40' W 122°23'0 0.0
2018-Jun-20 18:30N 47°40' W 122°23'0 0.0
2018-Jun-20 18:00N 47°40' W 122°23'0 0.0
2018-Jun-20 17:30N 47°40' W 122°23'0 0.0
2018-Jun-20 17:00N 47°40' W 122°23'0 0.0
2018-Jun-20 16:30N 47°40' W 122°23'0 0.0
2018-Jun-20 16:01N 47°40' W 122°23'0 0.0
2018-Jun-20 15:30N 47°40' W 122°23'0 0.0
2018-Jun-20 15:00N 47°40' W 122°23'0 0.0
2018-Jun-20 14:30N 47°40' W 122°23'0 0.0
2018-Jun-20 14:00N 47°40' W 122°23'0 0.1
2018-Jun-20 13:30N 47°40' W 122°23'0 0.0
2018-Jun-20 13:00N 47°40' W 122°23'0 0.0
2018-Jun-20 12:30N 47°40' W 122°23'0 0.0
2018-Jun-20 12:00N 47°40' W 122°23'0 0.0
2018-Jun-20 11:30N 47°40' W 122°23'0 0.0
2018-Jun-20 11:00N 47°40' W 122°23'0 0.0
2018-Jun-20 10:30N 47°40' W 122°23'0 0.0
2018-Jun-20 10:00N 47°40' W 122°23'0 0.0
2018-Jun-20 09:30N 47°40' W 122°23'0 0.0
2018-Jun-20 09:00N 47°40' W 122°23'0 0.0
2018-Jun-20 08:30N 47°40' W 122°23'0 0.0
2018-Jun-20 08:00N 47°40' W 122°23'0 0.0
2018-Jun-20 07:30N 47°40' W 122°23'0 0.0
2018-Jun-20 07:00N 47°40' W 122°23'0 0.0
2018-Jun-20 06:30N 47°40' W 122°23'0 0.0
2018-Jun-20 06:00N 47°40' W 122°23'0 0.0
2018-Jun-20 05:30N 47°40' W 122°23'0 0.0
2018-Jun-20 05:00N 47°40' W 122°23'0 0.0
2018-Jun-20 04:30N 47°40' W 122°23'0 0.0
2018-Jun-20 04:00N 47°40' W 122°23'0 0.0
2018-Jun-20 03:30N 47°40' W 122°23'0 0.0
2018-Jun-20 03:00N 47°40' W 122°23'0 0.0
2018-Jun-20 02:30N 47°40' W 122°23'0 0.0
2018-Jun-20 02:00N 47°40' W 122°23'0 0.0
2018-Jun-20 01:30N 47°40' W 122°23'0 0.0
2018-Jun-20 01:00N 47°40' W 122°23'0 0.0
2018-Jun-20 00:30N 47°40' W 122°23'0 0.0
2018-Jun-20 00:00N 47°40' W 122°23'0 0.0
2018-Jun-19 23:30N 47°40' W 122°23'0 0.0
2018-Jun-19 23:00N 47°40' W 122°23'0 0.0
2018-Jun-19 22:30N 47°40' W 122°23'0 0.0
2018-Jun-19 22:00N 47°40' W 122°23'0 0.0
2018-Jun-19 21:30N 47°40' W 122°23'0 0.0
2018-Jun-19 21:00N 47°40' W 122°23'0 0.0
2018-Jun-19 20:30N 47°40' W 122°23'0 0.0
2018-Jun-19 20:00N 47°40' W 122°23'0 0.0
2018-Jun-19 19:30N 47°40' W 122°23'0 0.0
2018-Jun-19 19:00N 47°40' W 122°23'0 0.0
2018-Jun-19 18:30N 47°40' W 122°23'0 0.0
2018-Jun-19 18:00N 47°40' W 122°23'0 0.0
2018-Jun-19 17:30N 47°40' W 122°23'0 0.0
2018-Jun-19 17:00N 47°40' W 122°23'0 0.0
2018-Jun-19 16:30N 47°40' W 122°23'0 0.0
2018-Jun-19 16:00N 47°40' W 122°23'0 0.0
2018-Jun-19 15:30N 47°40' W 122°23'0 0.0
2018-Jun-19 15:00N 47°40' W 122°23'0 0.0
2018-Jun-19 14:30N 47°40' W 122°23'0 0.0
2018-Jun-19 14:00N 47°40' W 122°23'0 0.0
2018-Jun-19 13:30N 47°40' W 122°23'0 0.0
2018-Jun-19 13:00N 47°40' W 122°23'0 0.0
2018-Jun-19 12:30N 47°40' W 122°23'0 0.0
2018-Jun-19 12:00N 47°40' W 122°23'0 0.0
2018-Jun-19 11:30N 47°40' W 122°23'0 0.0
2018-Jun-19 11:00N 47°40' W 122°23'0 0.0
2018-Jun-19 10:30N 47°40' W 122°23'0 0.0
2018-Jun-19 10:00N 47°40' W 122°23'0 0.0
2018-Jun-19 09:30N 47°40' W 122°23'0 0.0
2018-Jun-19 09:00N 47°40' W 122°23'0 0.0
2018-Jun-19 08:30N 47°40' W 122°23'0 0.0
2018-Jun-19 08:00N 47°40' W 122°23'0 0.0
2018-Jun-19 07:30N 47°40' W 122°23'0 0.0
2018-Jun-19 07:00N 47°40' W 122°23'0 0.0
2018-Jun-19 06:30N 47°40' W 122°23'0 0.0
2018-Jun-19 06:00N 47°40' W 122°23'0 0.0
2018-Jun-19 05:30N 47°40' W 122°23'0 0.0
2018-Jun-19 05:00N 47°40' W 122°23'0 0.0
2018-Jun-19 04:30N 47°40' W 122°23'0 0.0
2018-Jun-19 04:00N 47°40' W 122°23'0 0.0
2018-Jun-19 03:30N 47°40' W 122°23'0 0.0
2018-Jun-19 03:00N 47°40' W 122°23'0 0.0
2018-Jun-19 02:30N 47°40' W 122°23'0 0.0
2018-Jun-19 02:00N 47°40' W 122°23'0 0.0
2018-Jun-19 01:30N 47°40' W 122°23'0 0.0
2018-Jun-19 01:00N 47°40' W 122°23'0 0.0
2018-Jun-19 00:30N 47°40' W 122°23'0 0.0
2018-Jun-19 00:00N 47°40' W 122°23'0 0.0
2018-Jun-18 23:30N 47°40' W 122°23'0 0.0
2018-Jun-18 23:00N 47°40' W 122°23'0 0.0
2018-Jun-18 22:30N 47°40' W 122°23'0 0.0
2018-Jun-18 22:01N 47°40' W 122°23'0 0.0
2018-Jun-18 21:30N 47°40' W 122°23'0 0.0
2018-Jun-18 21:00N 47°40' W 122°23'0 0.0
2018-Jun-18 20:30N 47°40' W 122°23'0 0.0
2018-Jun-18 20:00N 47°40' W 122°23'0 0.0
2018-Jun-18 19:30N 47°40' W 122°23'0 0.0
2018-Jun-18 19:00N 47°40' W 122°23'0 0.0
2018-Jun-18 18:30N 47°40' W 122°23'0 0.0
2018-Jun-18 18:00N 47°40' W 122°23'0 0.0
2018-Jun-18 17:30N 47°40' W 122°23'0 0.0
2018-Jun-18 17:00N 47°40' W 122°23'0 0.0
2018-Jun-18 16:30N 47°40' W 122°23'0 0.0
2018-Jun-18 16:00N 47°40' W 122°23'0 0.0
2018-Jun-18 15:30N 47°40' W 122°23'0 0.0
2018-Jun-18 15:00N 47°40' W 122°23'0 0.0
2018-Jun-18 14:30N 47°40' W 122°23'0 0.0
2018-Jun-18 14:00N 47°40' W 122°23'0 0.0
2018-Jun-18 13:31N 47°40' W 122°23'0 0.0
2018-Jun-18 13:00N 47°40' W 122°23'0 0.0
2018-Jun-18 12:30N 47°40' W 122°23'0 0.0
2018-Jun-18 12:00N 47°40' W 122°23'0 0.0
2018-Jun-18 11:30N 47°40' W 122°23'0 0.0
2018-Jun-18 11:00N 47°40' W 122°23'0 0.0
2018-Jun-18 10:30N 47°40' W 122°23'0 0.0
2018-Jun-18 10:00N 47°40' W 122°23'0 0.0
2018-Jun-18 09:30N 47°40' W 122°23'0 0.0
2018-Jun-18 09:00N 47°40' W 122°23'0 0.0
2018-Jun-18 08:30N 47°40' W 122°23'0 0.0
2018-Jun-18 08:00N 47°40' W 122°23'0 0.0
2018-Jun-18 07:30N 47°40' W 122°23'0 0.0
2018-Jun-18 07:00N 47°40' W 122°23'0 0.0
2018-Jun-18 06:30N 47°40' W 122°23'0 0.0
2018-Jun-18 06:00N 47°40' W 122°23'0 0.0
2018-Jun-18 05:30N 47°40' W 122°23'0 0.0
2018-Jun-18 05:00N 47°40' W 122°23'0 0.0
2018-Jun-18 04:30N 47°40' W 122°23'0 0.0
2018-Jun-18 04:00N 47°40' W 122°23'0 0.0
2018-Jun-18 03:30N 47°40' W 122°23'0 0.0
2018-Jun-18 03:00N 47°40' W 122°23'0 0.0
2018-Jun-18 02:30N 47°40' W 122°23'0 0.0
2018-Jun-18 02:00N 47°40' W 122°23'0 0.0
2018-Jun-18 01:30N 47°40' W 122°23'0 0.0
2018-Jun-18 01:00N 47°40' W 122°23'0 0.0
2018-Jun-18 00:30N 47°40' W 122°23'0 0.0
2018-Jun-18 00:00N 47°40' W 122°23'0 0.0
2018-Jun-17 23:30N 47°40' W 122°23'0 0.0
2018-Jun-17 23:00N 47°40' W 122°23'0 0.0
2018-Jun-17 22:30N 47°40' W 122°23'0 0.0
2018-Jun-17 22:00N 47°40' W 122°23'0 0.0
2018-Jun-17 21:30N 47°40' W 122°23'0 0.0
2018-Jun-17 21:00N 47°40' W 122°23'0 0.0
2018-Jun-17 20:30N 47°40' W 122°23'0 0.0
2018-Jun-17 20:00N 47°40' W 122°23'0 0.0
2018-Jun-17 19:30N 47°40' W 122°23'0 0.0
2018-Jun-17 19:00N 47°40' W 122°23'0 0.0
2018-Jun-17 18:30N 47°40' W 122°23'0 0.0
2018-Jun-17 18:00N 47°40' W 122°23'0 0.0
2018-Jun-17 17:30N 47°40' W 122°23'0 0.0
2018-Jun-17 17:00N 47°40' W 122°23'0 0.0
2018-Jun-17 16:30N 47°40' W 122°23'0 0.0
2018-Jun-17 16:00N 47°40' W 122°23'0 0.0
2018-Jun-17 15:30N 47°40' W 122°23'0 0.0
2018-Jun-17 15:00N 47°40' W 122°23'0 0.0
2018-Jun-17 14:30N 47°40' W 122°23'0 0.0
2018-Jun-17 14:00N 47°40' W 122°23'0 0.0
2018-Jun-17 13:29N 47°40' W 122°23'0 0.0
2018-Jun-17 13:00N 47°40' W 122°23'0 0.0
2018-Jun-17 12:30N 47°40' W 122°23'0 0.0
2018-Jun-17 12:00N 47°40' W 122°23'0 0.0
2018-Jun-17 11:30N 47°40' W 122°23'0 0.0
2018-Jun-17 11:00N 47°40' W 122°23'0 0.0
2018-Jun-17 10:30N 47°40' W 122°23'0 0.0
2018-Jun-17 10:00N 47°40' W 122°23'0 0.0
2018-Jun-17 09:30N 47°40' W 122°23'0 0.0
2018-Jun-17 09:00N 47°40' W 122°23'0 0.0
2018-Jun-17 08:30N 47°40' W 122°23'0 0.0
2018-Jun-17 08:00N 47°40' W 122°23'0 0.0
2018-Jun-17 07:30N 47°40' W 122°23'0 0.0
2018-Jun-17 07:00N 47°40' W 122°23'0 0.0
2018-Jun-17 06:30N 47°40' W 122°23'0 0.0
2018-Jun-17 06:00N 47°40' W 122°23'0 0.0
2018-Jun-17 05:30N 47°40' W 122°23'0 0.0
2018-Jun-17 05:00N 47°40' W 122°23'0 0.0
2018-Jun-17 04:30N 47°40' W 122°23'0 0.0
2018-Jun-17 04:00N 47°40' W 122°23'0 0.0
2018-Jun-17 03:30N 47°40' W 122°23'0 0.0
2018-Jun-17 03:00N 47°40' W 122°23'0 0.0
2018-Jun-17 02:30N 47°40' W 122°23'0 0.0
2018-Jun-17 02:00N 47°40' W 122°23'0 0.0
2018-Jun-17 01:30N 47°40' W 122°23'0 0.0
2018-Jun-17 01:00N 47°40' W 122°23'0 0.0
2018-Jun-17 00:30N 47°40' W 122°23'0 0.0
2018-Jun-17 00:00N 47°40' W 122°23'0 0.0
2018-Jun-16 23:30N 47°40' W 122°23'0 0.0
2018-Jun-16 23:00N 47°40' W 122°23'0 0.0
2018-Jun-16 22:30N 47°40' W 122°23'0 0.0
2018-Jun-16 22:00N 47°40' W 122°23'0 0.0
2018-Jun-16 21:30N 47°40' W 122°23'0 0.0
2018-Jun-16 21:00N 47°40' W 122°23'0 0.0
2018-Jun-16 20:30N 47°40' W 122°23'0 0.0
2018-Jun-16 20:00N 47°40' W 122°23'0 0.0
2018-Jun-16 19:30N 47°40' W 122°23'0 0.0
2018-Jun-16 19:00N 47°40' W 122°23'0 0.0
2018-Jun-16 18:30N 47°40' W 122°23'0 0.0
2018-Jun-16 18:00N 47°40' W 122°23'0 0.0
2018-Jun-16 17:30N 47°40' W 122°23'0 0.0
2018-Jun-16 17:00N 47°40' W 122°23'0 0.0
2018-Jun-16 16:30N 47°40' W 122°23'0 0.0
2018-Jun-16 16:00N 47°40' W 122°23'0 0.0
2018-Jun-16 15:30N 47°40' W 122°23'0 0.0
2018-Jun-16 15:00N 47°40' W 122°23'0 0.0
2018-Jun-16 14:30N 47°40' W 122°23'0 0.0
2018-Jun-16 14:00N 47°40' W 122°23'0 0.0
2018-Jun-16 13:30N 47°40' W 122°23'0 0.0
2018-Jun-16 13:00N 47°40' W 122°23'0 0.0
2018-Jun-16 12:30N 47°40' W 122°23'0 0.0
2018-Jun-16 12:00N 47°40' W 122°23'0 0.0
2018-Jun-16 11:30N 47°40' W 122°23'0 0.0
2018-Jun-16 11:00N 47°40' W 122°23'0 0.0
2018-Jun-16 10:30N 47°40' W 122°23'0 0.0
2018-Jun-16 10:00N 47°40' W 122°23'0 0.0
2018-Jun-16 09:30N 47°40' W 122°23'0 0.0
2018-Jun-16 09:00N 47°40' W 122°23'0 0.0
2018-Jun-16 08:30N 47°40' W 122°23'0 0.0
2018-Jun-16 08:00N 47°40' W 122°23'0 0.0
2018-Jun-16 07:30N 47°40' W 122°23'0 0.0
2018-Jun-16 07:00N 47°40' W 122°23'0 0.0
2018-Jun-16 06:30N 47°40' W 122°23'0 0.0
2018-Jun-16 06:00N 47°40' W 122°23'0 0.0
2018-Jun-16 05:30N 47°40' W 122°23'0 0.0
2018-Jun-16 05:00N 47°40' W 122°23'0 0.0
2018-Jun-16 04:30N 47°40' W 122°23'0 0.0
2018-Jun-16 04:00N 47°40' W 122°23'0 0.0
2018-Jun-16 03:30N 47°40' W 122°23'0 0.0
2018-Jun-16 03:00N 47°40' W 122°23'0 0.0
2018-Jun-16 02:30N 47°40' W 122°23'0 0.0
2018-Jun-16 02:00N 47°40' W 122°23'0 0.0
2018-Jun-16 01:30N 47°40' W 122°23'0 0.0
2018-Jun-16 01:00N 47°40' W 122°23'0 0.0
2018-Jun-16 00:30N 47°40' W 122°23'0 0.0
2018-Jun-16 00:00N 47°40' W 122°23'0 0.0
2018-Jun-15 23:30N 47°40' W 122°23'0 0.0
2018-Jun-15 23:00N 47°40' W 122°23'0 0.0
2018-Jun-15 22:30N 47°40' W 122°23'0 0.0
2018-Jun-15 22:00N 47°40' W 122°23'0 0.0
2018-Jun-15 21:31N 47°40' W 122°23'0 0.0
2018-Jun-15 21:00N 47°40' W 122°23'0 0.0
2018-Jun-15 20:30N 47°40' W 122°23'0 0.0
2018-Jun-15 20:00N 47°40' W 122°23'0 0.0
2018-Jun-15 19:30N 47°40' W 122°23'0 0.0
2018-Jun-15 19:00N 47°40' W 122°23'0 0.0
2018-Jun-15 18:30N 47°40' W 122°23'0 0.0
2018-Jun-15 18:00N 47°40' W 122°23'0 0.0
2018-Jun-15 17:30N 47°40' W 122°23'0 0.0
2018-Jun-15 17:00N 47°40' W 122°23'0 0.0
2018-Jun-15 16:30N 47°40' W 122°23'0 0.0
2018-Jun-15 16:00N 47°40' W 122°23'0 0.0
2018-Jun-15 15:30N 47°40' W 122°23'0 0.0
2018-Jun-15 15:00N 47°40' W 122°23'0 0.0
2018-Jun-15 14:30N 47°40' W 122°23'0 0.0
2018-Jun-15 14:00N 47°40' W 122°23'0 0.0
2018-Jun-15 13:30N 47°40' W 122°23'0 0.0
2018-Jun-15 13:00N 47°40' W 122°23'0 0.0
2018-Jun-15 12:30N 47°40' W 122°23'0 0.0
2018-Jun-15 12:00N 47°40' W 122°23'0 0.0
2018-Jun-15 11:30N 47°40' W 122°23'0 0.0
2018-Jun-15 11:00N 47°40' W 122°23'0 0.0
2018-Jun-15 10:30N 47°40' W 122°23'0 0.0
2018-Jun-15 10:00N 47°40' W 122°23'0 0.0
2018-Jun-15 09:30N 47°40' W 122°23'0 0.0
2018-Jun-15 09:00N 47°40' W 122°23'0 0.0
2018-Jun-15 08:30N 47°40' W 122°23'0 0.0
2018-Jun-15 08:00N 47°40' W 122°23'0 0.0
2018-Jun-15 07:30N 47°40' W 122°23'0 0.0
2018-Jun-15 07:00N 47°40' W 122°23'0 0.0
2018-Jun-15 06:30N 47°40' W 122°23'0 0.0
2018-Jun-15 06:00N 47°40' W 122°23'0 0.0
2018-Jun-15 05:30N 47°40' W 122°23'0 0.0
2018-Jun-15 05:00N 47°40' W 122°23'0 0.0
2018-Jun-15 04:30N 47°40' W 122°23'0 0.0
2018-Jun-15 04:00N 47°40' W 122°23'0 0.0
2018-Jun-15 03:30N 47°40' W 122°23'0 0.0
2018-Jun-15 03:00N 47°40' W 122°23'0 0.0
2018-Jun-15 02:31N 47°40' W 122°23'0 0.0
2018-Jun-15 02:00N 47°40' W 122°23'0 0.0
2018-Jun-15 01:30N 47°40' W 122°23'0 0.0
2018-Jun-15 01:00N 47°40' W 122°23'0 0.5
2018-Jun-15 00:30N 47°40' W 122°24'1 1.7
2018-Jun-15 00:00N 47°40' W 122°25'1 1.5
2018-Jun-14 23:30N 47°40' W 122°24'  

Dump ship's entire track history